Sturgeon Bay, WI (54235)

8:37 PM CST on December 03, 2016 (GMT -0600)
City of Sturgeon Bay | | Change Station

Elev 633 ft 44.84 °N, 87.35 °W | Updated 2 minutes ago

Overcast
Overcast
31.3 °F
Feels Like 31 °F
N
2.7
Wind Variable Wind from SW

Today
High -- | Low -- °F
--% Chance of Precip.
Yesterday
High -- | Low -- °F
Precip. -- in
Pressure 30.34 in
Visibility 10.0 miles
Clouds Overcast 3000 ft
Windchill 31 °F
Dew Point 25 °F
Humidity 77%
Rainfall in
Snow Depth Not available.
7:09 AM 4:09 PM
Waxing Crescent, 19% visible
METAR KSUE 040156Z AUTO 23009KT 10SM OVC030 M01/M05 A3027 RMK AO2 SLP273 T10061050 FZRANO PNO $
Pressure 30.34 in
Visibility 10.0 miles
Clouds Overcast 3000 ft
Windchill 31 °F
Dew Point 25 °F
Humidity 77%
Rainfall in
Snow Depth Not available.
7:09 AM 4:09 PM
Waxing Crescent, 19% visible
METAR KSUE 040156Z AUTO 23009KT 10SM OVC030 M01/M05 A3027 RMK AO2 SLP273 T10061050 FZRANO PNO $

10-Day Weather Forecast

Almanac

Astronomy

Dec. 03, 2016 Rise Set
Actual Time
Civil Twilight
Nautical Twilight
Astronomical Twilight
Moon
Length of Visible Light
Length of Day
Tomorrow will be .
, % of the Moon is Illuminated

Today's Extremes

State Highs State Lows

Community

WunderPhotos

Upload Photos

1,955,564 photos uploaded!

WunderBlog® & News

Nearby

Air Quality

  Air Quality AQ Index Pollutant
Not available.

Snow Depth

Station Depth Elevation

Earthquake Activity

City Distance Mag. Time & Date
Minimum magnitude displayed is 2.5.

Coastal Water Temperatures

Place Temperature

Stations

Nearby Weather Stations

Station Location Temp. Windchill Dew Point Humidity Wind Precip. Elev Updated Type
                   

Watches & Warnings

There are currently no watches in effect.